Time;durP1;ratioP1;P1;durP2;ratioP2;P2;SDS_P1;SDS_P2;PMS_P1;PMS_P2;Temp;Humidity;BMP_temperature;BMP_pressure;BME280_temperature;BME280_humidity;BME280_pressure;Samples;Min_cycle;Max_cycle;Signal;HPM_P1;HPM_P2
2021/04/11 00:01:29;;;;;;;;;;;8.00;63.10;;;;;;4990115;28;20376;-69
2021/04/11 00:03:55;;;;;;;;;;;7.90;62.80;;;;;;4990062;28;19909;-68
2021/04/11 00:06:20;;;;;;;;;;;7.70;63.50;;;;;;4990053;28;19905;-69
2021/04/11 00:08:46;;;;;;;;;;;7.60;64.00;;;;;;4990130;28;19940;-69
2021/04/11 00:11:11;;;;;;;;;;;7.50;64.40;;;;;;4990227;28;20397;-69
2021/04/11 00:13:38;;;;;;;;;;;7.50;64.70;;;;;;4989983;28;19914;-69
2021/04/11 00:16:03;;;;;;;;;;;7.60;64.80;;;;;;4990042;28;19909;-66
2021/04/11 00:18:29;;;;;;;;;;;7.70;64.40;;;;;;4990211;28;19956;-66
2021/04/11 00:20:55;;;;;;;;;;;7.70;64.20;;;;;;4989895;28;19964;-66
2021/04/11 00:23:22;;;;;;;;;;;7.70;64.00;;;;;;4989701;28;20397;-67
2021/04/11 00:25:47;;;;;;;;;;;7.80;63.80;;;;;;4989658;28;19917;-65
2021/04/11 00:28:14;;;;;;;;;;;7.90;63.40;;;;;;4989806;28;19913;-66
2021/04/11 00:30:40;;;;;;;;;;;8.00;63.10;;;;;;4988770;28;20385;-68
2021/04/11 00:33:06;;;;;;;;;;;8.10;62.90;;;;;;4989710;28;19909;-68
2021/04/11 00:35:32;;;;;;;;;;;8.20;62.30;;;;;;4989410;28;19991;-67
2021/04/11 00:37:58;;;;;;;;;;;8.30;61.70;;;;;;4989135;28;19913;-68
2021/04/11 00:40:25;;;;;;;;;;;8.40;61.30;;;;;;4988686;28;20282;-69
2021/04/11 00:43:00;;;;;;;;;;;8.50;61.10;;;;;;4988053;28;19909;-68
2021/04/11 00:45:34;;;;;;;;;;;8.50;60.40;;;;;;4989656;28;19916;-68
2021/04/11 00:48:00;;;;;;;;;;;8.60;60.30;;;;;;4989452;28;19910;-68
2021/04/11 00:50:26;;;;;;;;;;;8.70;60.10;;;;;;4988153;28;20381;-67
2021/04/11 00:52:52;;;;;;;;;;;8.70;60.10;;;;;;4989520;28;19952;-68
2021/04/11 00:55:19;;;;;;;;;;;8.60;60.60;;;;;;4989478;28;19909;-68
2021/04/11 00:57:45;;;;;;;;;;;8.50;61.40;;;;;;4989593;28;20425;-68
2021/04/11 01:00:12;;;;;;;;;;;8.40;61.90;;;;;;4989437;28;19910;-67
2021/04/11 01:02:38;;;;;;;;;;;8.30;62.20;;;;;;5004899;28;20000;-68
2021/04/11 01:05:10;;;;;;;;;;;8.10;62.90;;;;;;4989430;28;19960;-67
2021/04/11 01:07:38;;;;;;;;;;;8.00;64.00;;;;;;4989337;28;19909;-68
2021/04/11 01:10:04;;;;;;;;;;;7.90;64.40;;;;;;4989323;28;19909;-67
2021/04/11 01:12:30;;;;;;;;;;;7.80;64.40;;;;;;4989237;28;19910;-68
2021/04/11 01:14:56;;;;;;;;;;;7.70;65.10;;;;;;4989432;28;19910;-68
2021/04/11 01:17:21;;;;;;;;;;;7.60;65.60;;;;;;4989361;28;19996;-67
2021/04/11 01:19:50;;;;;;;;;;;7.50;66.30;;;;;;4989215;28;19909;-68
2021/04/11 01:22:34;;;;;;;;;;;7.40;66.60;;;;;;4989123;28;20294;-68
2021/04/11 01:25:04;;;;;;;;;;;7.30;66.70;;;;;;4989230;28;19929;-67
2021/04/11 01:27:32;;;;;;;;;;;7.30;67.20;;;;;;4989250;28;20017;-68
2021/04/11 01:29:58;;;;;;;;;;;7.20;67.30;;;;;;4989157;28;19910;-67
2021/04/11 01:32:24;;;;;;;;;;;7.10;67.80;;;;;;4988164;28;19909;-67
2021/04/11 01:34:51;;;;;;;;;;;7.00;68.30;;;;;;4988984;28;19960;-67
2021/04/11 01:37:17;;;;;;;;;;;7.00;68.80;;;;;;4989085;28;19909;-68
2021/04/11 01:39:44;;;;;;;;;;;7.00;69.10;;;;;;4988928;28;19967;-67
2021/04/11 01:42:10;;;;;;;;;;;7.00;69.00;;;;;;4989052;28;20282;-68
2021/04/11 01:44:38;;;;;;;;;;;7.00;68.70;;;;;;4989036;28;20414;-67
2021/04/11 01:47:04;;;;;;;;;;;7.00;68.60;;;;;;4989092;28;20440;-68
2021/04/11 01:49:29;;;;;;;;;;;7.00;68.40;;;;;;4992638;28;19909;-67
2021/04/11 01:52:16;;;;;;;;;;;6.90;69.30;;;;;;4993066;28;20286;-68
2021/04/11 01:54:42;;;;;;;;;;;6.80;69.80;;;;;;4992719;28;19910;-68
2021/04/11 01:57:09;;;;;;;;;;;6.70;69.40;;;;;;4992523;28;20401;-68
2021/04/11 01:59:34;;;;;;;;;;;6.60;69.70;;;;;;4992385;28;20439;-66
2021/04/11 02:02:00;;;;;;;;;;;6.60;70.60;;;;;;4992580;28;19909;-68
2021/04/11 02:04:25;;;;;;;;;;;6.50;70.10;;;;;;4992457;28;19909;-68
2021/04/11 02:06:53;;;;;;;;;;;6.50;70.10;;;;;;4992442;28;19921;-68
2021/04/11 02:09:20;;;;;;;;;;;6.50;70.50;;;;;;4992416;28;20389;-67
2021/04/11 02:11:47;;;;;;;;;;;6.40;70.70;;;;;;4990849;28;20361;-67
2021/04/11 02:14:13;;;;;;;;;;;6.30;70.70;;;;;;4992227;28;20444;-68
2021/04/11 02:16:38;;;;;;;;;;;6.30;71.60;;;;;;4992152;28;20433;-67
2021/04/11 02:19:05;;;;;;;;;;;6.40;71.80;;;;;;4992313;28;19910;-68
2021/04/11 02:21:31;;;;;;;;;;;6.50;71.40;;;;;;4992063;28;19914;-66
2021/04/11 02:23:57;;;;;;;;;;;6.50;71.10;;;;;;4991928;28;20436;-68
2021/04/11 02:26:23;;;;;;;;;;;6.50;71.00;;;;;;4991964;28;19909;-68
2021/04/11 02:28:49;;;;;;;;;;;6.50;71.10;;;;;;4990513;28;19924;-68
2021/04/11 02:31:19;;;;;;;;;;;6.50;70.90;;;;;;4992033;28;19917;-67
2021/04/11 02:33:47;;;;;;;;;;;6.50;70.60;;;;;;4991748;28;19928;-68
2021/04/11 02:36:14;;;;;;;;;;;6.60;70.30;;;;;;4991917;28;20361;-67
2021/04/11 02:38:40;;;;;;;;;;;6.70;70.20;;;;;;4990565;28;19956;-67
2021/04/11 02:41:05;;;;;;;;;;;6.70;70.10;;;;;;4991686;28;20293;-68
2021/04/11 02:43:31;;;;;;;;;;;6.70;70.20;;;;;;4991787;28;19913;-67
2021/04/11 02:45:57;;;;;;;;;;;6.70;69.90;;;;;;4990214;28;19978;-68
2021/04/11 02:48:23;;;;;;;;;;;6.60;70.20;;;;;;4990281;28;19940;-67
2021/04/11 02:50:48;;;;;;;;;;;6.50;70.20;;;;;;4991626;28;19922;-68
2021/04/11 02:53:16;;;;;;;;;;;6.40;70.20;;;;;;4990157;28;19919;-68
2021/04/11 02:55:42;;;;;;;;;;;6.40;71.00;;;;;;4990186;28;19910;-68
2021/04/11 02:58:09;;;;;;;;;;;6.50;70.90;;;;;;4991511;28;19910;-68
2021/04/11 03:00:36;;;;;;;;;;;6.70;70.10;;;;;;4989447;28;20044;-67
2021/04/11 03:03:02;;;;;;;;;;;6.90;69.40;;;;;;4989966;28;19945;-68
2021/04/11 03:05:28;;;;;;;;;;;6.90;69.00;;;;;;4991419;28;20436;-68
2021/04/11 03:07:59;;;;;;;;;;;7.00;68.60;;;;;;4991395;28;19964;-68
2021/04/11 03:10:27;;;;;;;;;;;7.20;67.90;;;;;;4991627;28;19921;-69
2021/04/11 03:12:53;;;;;;;;;;;7.30;67.40;;;;;;4991255;28;19909;-69
2021/04/11 03:15:19;;;;;;;;;;;7.30;67.40;;;;;;4991121;28;20040;-68
2021/04/11 03:17:48;;;;;;;;;;;7.40;67.20;;;;;;4990913;28;20340;-67
2021/04/11 03:20:16;;;;;;;;;;;7.50;66.90;;;;;;4990965;28;20073;-68
2021/04/11 03:22:42;;;;;;;;;;;7.50;66.70;;;;;;4990741;28;19922;-68
2021/04/11 03:25:09;;;;;;;;;;;7.50;66.60;;;;;;4990939;28;19916;-68
2021/04/11 03:27:38;;;;;;;;;;;7.50;66.70;;;;;;4990814;28;19921;-67
2021/04/11 03:30:07;;;;;;;;;;;7.40;66.80;;;;;;4990961;28;19906;-68
2021/04/11 03:32:35;;;;;;;;;;;7.40;67.10;;;;;;4990985;28;19917;-67
2021/04/11 03:35:02;;;;;;;;;;;7.30;67.60;;;;;;4990694;28;19936;-66
2021/04/11 03:37:29;;;;;;;;;;;7.20;67.90;;;;;;4990659;28;19912;-68
2021/04/11 03:39:56;;;;;;;;;;;7.20;68.00;;;;;;4990694;28;19913;-67
2021/04/11 03:42:25;;;;;;;;;;;7.30;68.70;;;;;;4990622;28;19905;-68
2021/04/11 03:44:54;;;;;;;;;;;7.20;68.20;;;;;;4990651;28;19949;-68
2021/04/11 03:47:23;;;;;;;;;;;7.10;68.50;;;;;;4990522;28;19910;-68
2021/04/11 03:49:55;;;;;;;;;;;7.00;68.90;;;;;;4990687;28;19917;-67
2021/04/11 03:52:30;;;;;;;;;;;7.10;69.00;;;;;;4990416;28;19934;-67
2021/04/11 03:54:57;;;;;;;;;;;7.00;68.90;;;;;;4990491;28;19910;-68
2021/04/11 03:57:29;;;;;;;;;;;7.10;69.00;;;;;;4990428;28;19905;-68
2021/04/11 04:00:07;;;;;;;;;;;7.10;69.20;;;;;;4990296;28;19917;-67
2021/04/11 04:02:35;;;;;;;;;;;7.10;69.00;;;;;;4990217;28;19945;-67
2021/04/11 04:05:03;;;;;;;;;;;7.10;68.90;;;;;;4990097;28;19996;-68
2021/04/11 04:07:39;;;;;;;;;;;7.00;69.00;;;;;;4990299;28;19909;-67
2021/04/11 04:10:06;;;;;;;;;;;7.00;69.40;;;;;;4990081;28;19906;-67
2021/04/11 04:12:44;;;;;;;;;;;7.00;69.50;;;;;;4990049;28;19909;-68
2021/04/11 04:15:26;;;;;;;;;;;7.00;69.30;;;;;;4990159;28;19963;-68
2021/04/11 04:17:57;;;;;;;;;;;7.00;69.40;;;;;;4989945;28;19909;-67
2021/04/11 04:20:23;;;;;;;;;;;7.00;69.50;;;;;;4989952;28;19960;-67
2021/04/11 04:22:55;;;;;;;;;;;7.00;69.60;;;;;;4989722;28;19925;-67
2021/04/11 04:26:00;;;;;;;;;;;7.10;69.50;;;;;;4988671;28;19916;-67
2021/04/11 04:28:28;;;;;;;;;;;7.20;69.40;;;;;;4948542;29;19910;-67
2021/04/11 04:31:04;;;;;;;;;;;7.40;68.80;;;;;;4948183;29;20366;-67
2021/04/11 04:33:32;;;;;;;;;;;7.50;68.40;;;;;;4971743;28;19964;-68
2021/04/11 04:36:01;;;;;;;;;;;7.50;68.20;;;;;;4988485;28;19953;-67
2021/04/11 04:38:28;;;;;;;;;;;7.50;68.00;;;;;;4989560;28;19909;-68
2021/04/11 04:41:01;;;;;;;;;;;7.70;67.60;;;;;;4989836;28;19909;-67
2021/04/11 04:43:49;;;;;;;;;;;8.10;66.70;;;;;;4989677;28;19985;-66
2021/04/11 04:46:17;;;;;;;;;;;8.60;64.50;;;;;;4989561;28;19905;-68
2021/04/11 04:48:48;;;;;;;;;;;9.20;62.60;;;;;;4989614;28;19936;-68
2021/04/11 04:51:17;;;;;;;;;;;9.60;60.80;;;;;;4989506;28;20432;-68
2021/04/11 04:53:46;;;;;;;;;;;10.00;59.00;;;;;;4989316;28;19916;-68
2021/04/11 04:56:20;;;;;;;;;;;10.50;57.20;;;;;;4989507;28;20479;-68
2021/04/11 04:58:50;;;;;;;;;;;11.20;54.80;;;;;;4989498;28;19964;-68
2021/04/11 05:01:18;;;;;;;;;;;11.60;53.20;;;;;;4989534;28;19916;-68
2021/04/11 05:03:45;;;;;;;;;;;12.00;52.20;;;;;;4988076;28;19996;-68
2021/04/11 05:06:14;;;;;;;;;;;12.10;51.60;;;;;;4988028;28;19910;-68
2021/04/11 05:08:43;;;;;;;;;;;12.20;51.00;;;;;;4989522;28;19909;-68
2021/04/11 05:11:22;;;;;;;;;;;12.30;50.60;;;;;;4988066;28;19922;-68
2021/04/11 05:13:50;;;;;;;;;;;12.30;50.60;;;;;;4989203;28;19910;-68
2021/04/11 05:16:31;;;;;;;;;;;12.60;49.50;;;;;;4989373;28;19952;-68
2021/04/11 05:19:01;;;;;;;;;;;13.10;48.80;;;;;;4989336;28;19952;-68
2021/04/11 05:21:31;;;;;;;;;;;13.70;46.80;;;;;;4987924;28;19910;-68
2021/04/11 05:24:04;;;;;;;;;;;14.30;45.30;;;;;;4991798;28;19922;-68
2021/04/11 05:26:39;;;;;;;;;;;14.60;44.30;;;;;;4993175;28;20286;-68
2021/04/11 05:29:05;;;;;;;;;;;14.80;43.80;;;;;;4993117;28;19914;-68
2021/04/11 05:31:32;;;;;;;;;;;15.20;43.10;;;;;;4992906;28;20463;-66
2021/04/11 05:33:59;;;;;;;;;;;15.30;42.90;;;;;;4993008;28;19910;-66
2021/04/11 05:36:30;;;;;;;;;;;15.60;42.50;;;;;;4992988;28;19906;-66
2021/04/11 05:39:01;;;;;;;;;;;15.90;40.90;;;;;;4992947;28;19910;-66
2021/04/11 05:41:34;;;;;;;;;;;15.90;40.40;;;;;;4992860;28;19909;-66
2021/04/11 05:44:05;;;;;;;;;;;15.80;41.00;;;;;;4992852;28;20540;-66
2021/04/11 05:46:35;;;;;;;;;;;16.00;40.90;;;;;;4992760;28;19909;-66
2021/04/11 05:49:02;;;;;;;;;;;15.90;41.00;;;;;;4992715;28;19952;-66
2021/04/11 05:51:30;;;;;;;;;;;16.10;40.40;;;;;;4992779;28;19924;-66
2021/04/11 05:53:59;;;;;;;;;;;16.30;39.80;;;;;;4992622;28;19909;-66
2021/04/11 05:56:27;;;;;;;;;;;16.40;39.90;;;;;;4973120;28;19910;-66
2021/04/11 05:58:56;;;;;;;;;;;16.50;39.80;;;;;;4973062;28;19909;-67
2021/04/11 06:01:25;;;;;;;;;;;16.60;39.40;;;;;;4973227;28;19950;-68
2021/04/11 06:03:54;;;;;;;;;;;16.80;39.30;;;;;;4972953;28;19910;-68
2021/04/11 06:06:23;;;;;;;;;;;17.10;38.80;;;;;;4971610;28;19914;-69
2021/04/11 06:09:01;;;;;;;;;;;17.50;37.50;;;;;;4972915;28;19910;-68
2021/04/11 06:11:34;;;;;;;;;;;17.40;37.30;;;;;;4972917;28;19992;-68
2021/04/11 06:14:05;;;;;;;;;;;17.20;37.50;;;;;;4972888;28;19914;-68
2021/04/11 06:16:32;;;;;;;;;;;16.70;38.30;;;;;;4972763;28;19910;-68
2021/04/11 06:18:58;;;;;;;;;;;16.30;39.40;;;;;;4972861;28;19953;-68
2021/04/11 06:21:27;;;;;;;;;;;15.80;41.10;;;;;;4972691;28;19941;-68
2021/04/11 06:23:57;;;;;;;;;;;15.80;41.60;;;;;;4972429;28;19922;-68
2021/04/11 06:26:28;;;;;;;;;;;16.60;40.10;;;;;;4972871;28;19906;-69
2021/04/11 06:29:00;;;;;;;;;;;17.30;38.30;;;;;;4972879;28;19910;-65
2021/04/11 06:31:27;;;;;;;;;;;17.70;37.20;;;;;;4972900;28;19964;-68
2021/04/11 06:33:57;;;;;;;;;;;17.70;37.40;;;;;;4971456;28;19920;-68
2021/04/11 06:36:31;;;;;;;;;;;17.80;37.50;;;;;;4972074;28;19906;-68
2021/04/11 06:38:59;;;;;;;;;;;18.10;36.70;;;;;;4972606;28;19917;-68
2021/04/11 06:41:27;;;;;;;;;;;17.70;37.10;;;;;;4972520;28;20402;-68
2021/04/11 06:44:08;;;;;;;;;;;17.20;38.00;;;;;;4972240;28;19910;-68
2021/04/11 06:46:57;;;;;;;;;;;17.10;39.10;;;;;;4972428;28;20362;-68
2021/04/11 06:49:34;;;;;;;;;;;17.10;38.20;;;;;;4962056;28;19910;-68
2021/04/11 06:52:13;;;;;;;;;;;17.20;38.30;;;;;;4972220;28;19961;-69
2021/04/11 06:54:57;;;;;;;;;;;16.90;38.60;;;;;;4972179;28;19914;-68
2021/04/11 06:57:49;;;;;;;;;;;16.90;39.10;;;;;;4972053;28;19965;-68
2021/04/11 07:00:14;;;;;;;;;;;16.70;39.00;;;;;;4970745;28;19937;-68
2021/04/11 07:02:54;;;;;;;;;;;16.60;39.80;;;;;;4971897;28;20377;-68
2021/04/11 07:05:23;;;;;;;;;;;16.30;40.30;;;;;;4972040;28;19934;-68
2021/04/11 07:08:03;;;;;;;;;;;16.40;40.90;;;;;;4971775;28;19917;-68
2021/04/11 07:10:40;;;;;;;;;;;16.90;39.70;;;;;;4981781;28;19972;-68
2021/04/11 07:13:20;;;;;;;;;;;17.30;38.90;;;;;;4991139;28;19906;-68
2021/04/11 07:15:51;;;;;;;;;;;17.10;38.40;;;;;;4985721;28;19910;-69
2021/04/11 07:18:52;;;;;;;;;;;17.20;39.00;;;;;;4973441;28;19917;-68
2021/04/11 07:21:33;;;;;;;;;;;17.50;38.70;;;;;;4957361;28;19910;-68
2021/04/11 07:24:05;;;;;;;;;;;17.90;38.10;;;;;;4984504;28;19976;-69
2021/04/11 07:26:30;;;;;;;;;;;18.20;37.30;;;;;;4971512;28;20029;-69
2021/04/11 07:29:14;;;;;;;;;;;18.30;36.80;;;;;;4986328;28;19953;-69
2021/04/11 07:31:50;;;;;;;;;;;18.00;37.10;;;;;;4971322;28;20437;-68
2021/04/11 07:34:22;;;;;;;;;;;18.00;36.60;;;;;;4986213;28;19910;-68
2021/04/11 07:36:54;;;;;;;;;;;17.60;37.10;;;;;;4971419;28;20357;-67
2021/04/11 07:39:26;;;;;;;;;;;17.70;37.10;;;;;;4971300;28;19910;-69
2021/04/11 07:42:09;;;;;;;;;;;17.80;36.80;;;;;;4971129;28;20033;-68
2021/04/11 07:45:04;;;;;;;;;;;17.70;36.70;;;;;;4986487;28;19957;-68
2021/04/11 07:47:45;;;;;;;;;;;17.70;37.70;;;;;;4951524;28;19914;-68
2021/04/11 07:50:23;;;;;;;;;;;17.80;37.00;;;;;;4971103;28;19918;-69
2021/04/11 07:53:01;;;;;;;;;;;18.00;37.50;;;;;;4970977;28;19921;-69
2021/04/11 07:55:39;;;;;;;;;;;18.10;37.00;;;;;;4970997;28;20397;-68
2021/04/11 07:58:07;;;;;;;;;;;18.50;36.20;;;;;;4971010;28;20414;-68
2021/04/11 08:00:51;;;;;;;;;;;18.90;35.10;;;;;;4970867;28;19993;-68
2021/04/11 08:03:40;;;;;;;;;;;19.00;34.90;;;;;;4970743;28;19944;-68
2021/04/11 08:06:23;;;;;;;;;;;18.80;35.50;;;;;;4967828;28;20022;-67
2021/04/11 08:08:48;;;;;;;;;;;18.70;35.20;;;;;;4969821;28;19906;-68
2021/04/11 08:11:32;;;;;;;;;;;18.50;35.90;;;;;;4970782;28;20029;-67
2021/04/11 08:14:05;;;;;;;;;;;19.10;35.60;;;;;;4970658;28;19912;-68
2021/04/11 08:16:49;;;;;;;;;;;20.10;33.70;;;;;;4970859;28;20007;-66
2021/04/11 08:19:15;;;;;;;;;;;20.80;31.80;;;;;;4970654;28;19909;-65
2021/04/11 08:21:52;;;;;;;;;;;20.90;32.10;;;;;;4970217;28;19917;-65
2021/04/11 08:24:38;;;;;;;;;;;21.70;30.30;;;;;;4977665;28;19926;-65
2021/04/11 08:27:06;;;;;;;;;;;22.10;30.00;;;;;;4989779;28;19910;-65
2021/04/11 08:29:50;;;;;;;;;;;22.20;29.40;;;;;;4970275;28;19916;-66
2021/04/11 08:32:34;;;;;;;;;;;22.70;29.20;;;;;;5000858;28;19917;-66
2021/04/11 08:35:10;;;;;;;;;;;22.90;28.80;;;;;;4982657;28;20449;-66
2021/04/11 08:37:48;;;;;;;;;;;23.00;27.70;;;;;;4969188;28;19914;-67
2021/04/11 08:40:32;;;;;;;;;;;22.60;27.80;;;;;;4972126;28;19910;-67
2021/04/11 08:43:04;;;;;;;;;;;22.30;28.40;;;;;;4975587;28;19913;-67
2021/04/11 08:45:29;;;;;;;;;;;21.70;29.50;;;;;;5007447;28;20306;-68
2021/04/11 08:48:13;;;;;;;;;;;20.90;30.60;;;;;;4980144;28;19909;-68
2021/04/11 08:50:39;;;;;;;;;;;21.00;31.20;;;;;;4980232;28;19921;-69
2021/04/11 08:53:23;;;;;;;;;;;20.60;31.50;;;;;;4978386;28;19910;-68
2021/04/11 08:55:52;;;;;;;;;;;20.40;32.10;;;;;;4988197;28;19910;-68
2021/04/11 08:58:36;;;;;;;;;;;20.30;32.00;;;;;;4988620;28;19916;-68
2021/04/11 09:01:20;;;;;;;;;;;20.00;32.70;;;;;;4988293;28;20008;-69
2021/04/11 09:03:46;;;;;;;;;;;19.70;33.00;;;;;;4989411;28;20695;-67
2021/04/11 09:06:23;;;;;;;;;;;20.00;32.50;;;;;;4989481;28;19916;-68
2021/04/11 09:08:52;;;;;;;;;;;20.40;32.60;;;;;;4989415;28;19913;-69
2021/04/11 09:11:21;;;;;;;;;;;20.40;32.10;;;;;;4989394;28;19920;-68
2021/04/11 09:14:05;;;;;;;;;;;19.90;33.10;;;;;;4989182;28;19913;-68
2021/04/11 09:16:49;;;;;;;;;;;19.90;33.10;;;;;;4988136;28;19917;-69
2021/04/11 09:19:35;;;;;;;;;;;20.40;32.60;;;;;;4989241;28;19910;-69
2021/04/11 09:22:14;;;;;;;;;;;20.40;32.30;;;;;;4968218;28;19910;-69
2021/04/11 09:24:55;;;;;;;;;;;20.10;33.40;;;;;;4989363;28;20389;-67
2021/04/11 09:27:39;;;;;;;;;;;20.40;33.10;;;;;;4989325;28;19909;-69
2021/04/11 09:30:10;;;;;;;;;;;20.50;32.70;;;;;;4988407;28;19918;-68
2021/04/11 09:32:55;;;;;;;;;;;20.80;32.20;;;;;;4989202;28;20378;-68
2021/04/11 09:35:43;;;;;;;;;;;21.10;31.50;;;;;;4989300;28;20027;-68
2021/04/11 09:38:12;;;;;;;;;;;21.30;31.60;;;;;;4969895;28;20249;-69
2021/04/11 09:40:37;;;;;;;;;;;20.80;32.00;;;;;;4989109;28;19981;-68
2021/04/11 09:43:14;;;;;;;;;;;20.30;32.40;;;;;;4987988;28;19917;-69
2021/04/11 09:45:54;;;;;;;;;;;20.30;31.60;;;;;;4989265;28;19918;-68
2021/04/11 09:48:38;;;;;;;;;;;20.20;32.10;;;;;;4989143;28;19945;-69
2021/04/11 09:51:10;;;;;;;;;;;20.20;32.60;;;;;;4989053;28;20400;-69
2021/04/11 09:53:54;;;;;;;;;;;20.00;33.20;;;;;;4988576;28;19976;-69
2021/04/11 09:56:19;;;;;;;;;;;20.10;33.00;;;;;;4988969;28;19974;-68
2021/04/11 09:59:04;;;;;;;;;;;20.40;33.60;;;;;;4989135;28;19956;-69
2021/04/11 10:01:41;;;;;;;;;;;21.20;31.70;;;;;;4989049;28;19960;-68
2021/04/11 10:04:14;;;;;;;;;;;21.60;31.30;;;;;;4988796;28;20306;-69
2021/04/11 10:06:59;;;;;;;;;;;21.70;31.00;;;;;;4989041;28;19917;-69
2021/04/11 10:09:35;;;;;;;;;;;21.10;32.00;;;;;;4990586;28;20722;-68
2021/04/11 10:12:07;;;;;;;;;;;20.60;32.20;;;;;;4992232;28;19918;-68
2021/04/11 10:14:51;;;;;;;;;;;20.20;33.60;;;;;;4992347;28;19913;-68
2021/04/11 10:17:23;;;;;;;;;;;19.80;34.30;;;;;;4991184;28;20020;-68
2021/04/11 10:19:59;;;;;;;;;;;19.50;34.70;;;;;;4992104;28;19910;-69
2021/04/11 10:22:40;;;;;;;;;;;19.40;36.00;;;;;;4991821;28;19952;-69
2021/04/11 10:25:11;;;;;;;;;;;19.20;35.90;;;;;;4992116;28;19921;-69
2021/04/11 10:27:58;;;;;;;;;;;19.30;35.70;;;;;;4991789;28;20000;-69
2021/04/11 10:30:25;;;;;;;;;;;19.60;36.20;;;;;;4990622;28;19936;-69
2021/04/11 10:33:01;;;;;;;;;;;19.80;33.70;;;;;;4986585;28;19912;-66
2021/04/11 10:35:31;;;;;;;;;;;20.00;34.10;;;;;;4990155;28;20333;-66
2021/04/11 10:38:01;;;;;;;;;;;19.90;33.70;;;;;;4991824;28;20568;-67
2021/04/11 10:40:29;;;;;;;;;;;19.80;34.10;;;;;;4991772;28;19909;-66
2021/04/11 10:43:12;;;;;;;;;;;19.80;34.40;;;;;;4990407;28;20346;-67
2021/04/11 10:45:39;;;;;;;;;;;19.70;34.10;;;;;;4991605;28;20037;-67
2021/04/11 10:48:13;;;;;;;;;;;19.80;34.10;;;;;;4991754;28;20004;-67
2021/04/11 10:50:57;;;;;;;;;;;19.60;34.10;;;;;;4991655;28;19971;-67
2021/04/11 10:53:41;;;;;;;;;;;19.40;34.30;;;;;;4991515;28;19909;-66
2021/04/11 10:56:09;;;;;;;;;;;19.30;34.80;;;;;;4991511;28;20413;-67
2021/04/11 10:58:38;;;;;;;;;;;19.10;34.80;;;;;;4990101;28;19944;-67
2021/04/11 11:01:13;;;;;;;;;;;19.00;34.90;;;;;;4991420;28;20345;-67
2021/04/11 11:03:56;;;;;;;;;;;19.30;34.90;;;;;;4991226;28;19909;-66
2021/04/11 11:06:22;;;;;;;;;;;19.60;34.30;;;;;;4991311;28;19909;-66
2021/04/11 11:09:03;;;;;;;;;;;19.90;33.60;;;;;;4991320;28;19916;-67
2021/04/11 11:11:48;;;;;;;;;;;20.00;32.90;;;;;;4991134;28;19921;-66
2021/04/11 11:14:19;;;;;;;;;;;20.40;30.50;;;;;;4991004;28;19912;-67
2021/04/11 11:17:14;;;;;;;;;;;20.70;30.20;;;;;;4991117;28;19910;-67
2021/04/11 11:19:46;;;;;;;;;;;20.90;29.80;;;;;;4976844;28;20362;-65
2021/04/11 11:22:14;;;;;;;;;;;21.00;29.10;;;;;;4990373;28;19906;-67
2021/04/11 11:24:52;;;;;;;;;;;20.90;29.00;;;;;;4991069;28;20456;-66
2021/04/11 11:27:17;;;;;;;;;;;21.10;28.40;;;;;;4989823;28;19920;-68
2021/04/11 11:29:50;;;;;;;;;;;21.20;27.70;;;;;;4990985;28;20012;-68
2021/04/11 11:32:29;;;;;;;;;;;21.20;27.70;;;;;;4990716;28;20334;-67
2021/04/11 11:34:58;;;;;;;;;;;21.30;28.30;;;;;;4990886;28;19913;-67
2021/04/11 11:37:42;;;;;;;;;;;21.30;27.80;;;;;;4990882;28;19910;-68
2021/04/11 11:40:29;;;;;;;;;;;21.40;27.60;;;;;;4990723;28;20362;-67
2021/04/11 11:42:58;;;;;;;;;;;21.20;27.80;;;;;;4989422;28;19916;-67
2021/04/11 11:45:42;;;;;;;;;;;20.90;28.30;;;;;;4990458;28;19916;-67
2021/04/11 11:48:26;;;;;;;;;;;20.80;28.20;;;;;;4990493;28;19945;-67
2021/04/11 11:51:06;;;;;;;;;;;20.50;28.30;;;;;;4990561;28;19917;-67
2021/04/11 11:53:42;;;;;;;;;;;20.30;28.60;;;;;;4990217;28;19909;-67
2021/04/11 11:56:26;;;;;;;;;;;20.10;29.30;;;;;;4990097;28;20004;-67
2021/04/11 11:58:57;;;;;;;;;;;20.20;29.40;;;;;;4990200;28;19913;-67
2021/04/11 12:01:25;;;;;;;;;;;20.40;29.10;;;;;;4990044;28;20677;-67
2021/04/11 12:04:03;;;;;;;;;;;20.50;28.60;;;;;;4989896;28;20428;-67
2021/04/11 12:06:33;;;;;;;;;;;20.60;27.60;;;;;;4990159;28;20302;-67
2021/04/11 12:08:59;;;;;;;;;;;20.70;27.40;;;;;;4988916;28;19910;-67
2021/04/11 12:11:25;;;;;;;;;;;20.80;27.20;;;;;;4990128;28;19918;-67
2021/04/11 12:14:11;;;;;;;;;;;20.80;27.00;;;;;;4988475;28;19905;-67
2021/04/11 12:16:42;;;;;;;;;;;20.80;26.40;;;;;;4990505;28;19910;-68
2021/04/11 12:19:13;;;;;;;;;;;20.80;26.70;;;;;;4990211;28;19921;-67
2021/04/11 12:21:39;;;;;;;;;;;20.90;26.60;;;;;;4989920;28;19941;-68
2021/04/11 12:24:15;;;;;;;;;;;20.90;26.70;;;;;;4989809;28;19965;-67
2021/04/11 12:26:48;;;;;;;;;;;20.90;26.90;;;;;;4990062;28;19937;-68
2021/04/11 12:29:14;;;;;;;;;;;20.90;26.40;;;;;;4988882;28;19956;-68
2021/04/11 12:31:44;;;;;;;;;;;20.80;26.50;;;;;;4989469;28;19922;-67
2021/04/11 12:34:28;;;;;;;;;;;20.60;26.80;;;;;;4988323;28;19948;-68
2021/04/11 12:37:04;;;;;;;;;;;20.60;26.80;;;;;;4989664;28;19933;-68
2021/04/11 12:39:30;;;;;;;;;;;20.40;26.80;;;;;;4988159;28;19913;-67
2021/04/11 12:41:59;;;;;;;;;;;20.20;27.00;;;;;;4988227;28;19996;-69
2021/04/11 12:44:33;;;;;;;;;;;20.00;27.00;;;;;;4989474;28;19909;-69
2021/04/11 12:47:15;;;;;;;;;;;19.80;26.90;;;;;;4989592;28;19910;-69
2021/04/11 12:49:59;;;;;;;;;;;19.50;27.10;;;;;;4988141;28;20412;-68
2021/04/11 12:52:39;;;;;;;;;;;19.30;27.80;;;;;;4989480;28;19960;-68
2021/04/11 12:55:19;;;;;;;;;;;19.30;27.80;;;;;;4989563;28;19956;-69
2021/04/11 12:57:53;;;;;;;;;;;19.30;27.40;;;;;;4989331;28;19917;-68
2021/04/11 13:00:21;;;;;;;;;;;19.40;27.70;;;;;;4989626;28;19913;-69
2021/04/11 13:03:03;;;;;;;;;;;19.40;27.80;;;;;;4989535;28;19910;-68
2021/04/11 13:05:33;;;;;;;;;;;19.20;27.90;;;;;;4989897;28;20704;-68
2021/04/11 13:08:10;;;;;;;;;;;19.10;28.60;;;;;;4989407;28;20339;-69
2021/04/11 13:10:47;;;;;;;;;;;19.30;28.90;;;;;;4989508;28;19953;-68
2021/04/11 13:13:21;;;;;;;;;;;19.40;29.00;;;;;;4989428;28;19910;-68
2021/04/11 13:16:05;;;;;;;;;;;19.40;29.10;;;;;;4989213;28;19940;-68
2021/04/11 13:18:37;;;;;;;;;;;19.30;29.20;;;;;;4989188;28;20004;-69
2021/04/11 13:21:09;;;;;;;;;;;19.10;29.90;;;;;;4989271;28;19949;-69
2021/04/11 13:23:45;;;;;;;;;;;18.90;30.30;;;;;;4987912;28;20463;-68
2021/04/11 13:26:13;;;;;;;;;;;18.60;30.80;;;;;;4989205;28;19910;-69
2021/04/11 13:28:44;;;;;;;;;;;18.50;31.00;;;;;;4989320;28;19916;-68
2021/04/11 13:31:13;;;;;;;;;;;18.40;31.10;;;;;;4989102;28;19988;-68
2021/04/11 13:33:46;;;;;;;;;;;18.30;30.90;;;;;;4989044;28;20011;-67
2021/04/11 13:36:23;;;;;;;;;;;18.40;30.30;;;;;;4989265;28;20297;-68
2021/04/11 13:38:54;;;;;;;;;;;18.40;30.40;;;;;;4987942;28;19910;-67
2021/04/11 13:41:34;;;;;;;;;;;18.50;30.00;;;;;;4989143;28;20308;-68
2021/04/11 13:44:15;;;;;;;;;;;18.70;30.00;;;;;;4990182;28;19920;-69
2021/04/11 13:46:51;;;;;;;;;;;18.80;29.60;;;;;;4992920;28;19905;-69
2021/04/11 13:49:35;;;;;;;;;;;18.80;29.60;;;;;;4992842;28;19952;-67
2021/04/11 13:52:30;;;;;;;;;;;18.80;29.80;;;;;;4991356;28;19925;-69
2021/04/11 13:55:03;;;;;;;;;;;18.60;30.20;;;;;;4983635;28;19963;-68
2021/04/11 13:57:28;;;;;;;;;;;18.40;30.40;;;;;;4992649;28;19910;-68
2021/04/11 14:00:00;;;;;;;;;;;18.00;30.60;;;;;;4991199;28;20263;-69
2021/04/11 14:02:30;;;;;;;;;;;17.80;30.60;;;;;;4992518;28;19909;-68
2021/04/11 14:04:56;;;;;;;;;;;17.70;31.30;;;;;;4992549;28;19914;-68
2021/04/11 14:07:25;;;;;;;;;;;17.60;31.70;;;;;;4991128;28;19916;-69
2021/04/11 14:09:56;;;;;;;;;;;17.60;31.50;;;;;;4992173;28;19941;-69
2021/04/11 14:12:24;;;;;;;;;;;17.60;31.70;;;;;;4992217;28;19918;-69
2021/04/11 14:14:52;;;;;;;;;;;17.50;30.90;;;;;;4992354;28;19909;-68
2021/04/11 14:17:18;;;;;;;;;;;17.50;32.00;;;;;;4992212;28;19945;-69
2021/04/11 14:20:01;;;;;;;;;;;17.50;34.90;;;;;;4992103;28;19999;-69
2021/04/11 14:22:30;;;;;;;;;;;17.40;37.80;;;;;;4992028;28;19995;-68
2021/04/11 14:24:58;;;;;;;;;;;17.20;39.10;;;;;;4990655;28;20057;-68
2021/04/11 14:27:42;;;;;;;;;;;16.90;39.90;;;;;;4992065;28;20000;-68
2021/04/11 14:30:08;;;;;;;;;;;16.70;40.60;;;;;;4992093;28;19909;-68
2021/04/11 14:32:35;;;;;;;;;;;16.60;41.40;;;;;;4990617;28;19988;-70
2021/04/11 14:35:07;;;;;;;;;;;16.40;42.20;;;;;;4991996;28;19910;-67
2021/04/11 14:37:51;;;;;;;;;;;16.20;43.10;;;;;;4991910;28;19906;-69
2021/04/11 14:40:25;;;;;;;;;;;16.10;43.80;;;;;;4990744;28;20416;-68
2021/04/11 14:43:13;;;;;;;;;;;16.00;44.10;;;;;;4992060;28;20105;-69
2021/04/11 14:45:50;;;;;;;;;;;15.80;44.50;;;;;;4972606;28;19905;-69
2021/04/11 14:48:36;;;;;;;;;;;15.70;45.00;;;;;;4991805;28;19976;-69
2021/04/11 14:51:08;;;;;;;;;;;15.60;45.00;;;;;;4991174;28;19992;-69
2021/04/11 14:53:34;;;;;;;;;;;15.50;45.20;;;;;;4991250;28;19905;-68